Lawn, Texas
Current Conditions -  °F | °C
As of 11:52 AM on Saturday 20 Dec 2014 (Local Time) from KABI Reporting Station
Overcast Overcast  
Wind Chill: 42°   Ceiling: 1700
Heat Index: 46°   Visibility: 10mi
Dew Point: 38°   Wind: 7mph
Humidity: 73%   Direction: 210°SSW
Pressure: 30.22"   Gusts: NA
Location:  32.13°N, 99.75°W
Report Text: KABI 201752Z 21006KT 10SM OVC017 08/03 A3022 RMK AO2 SLP232 T00780033 10078 20067 50004
Loading
Personal Weather Stations






























Interactive Weather Map New forecast layout! Learn more

10-Day Weather Forecast

Advertisements
Track Severe Weather on mobile